EETN/TLL METAR and TAF weather

Enter ICAO airport designator
Station Type Date Time Source
EETN METAR 2020/09/20 10:20 UTC NOAA

EETN 201020Z 25014KT 9999 BKN036 14/07 Q1020 NOSIG


Station Type Date Time Source
EETN Decoded METAR 2020/09/20 10:20 UTC NOAA

Tallinn, Estonia (EETN) 59-24N 024-49E 34M
Sep 20, 2020 - 06:20 AM EDT / 2020.09.20 1020 UTC
Wind: from the WSW (250 degrees) at 16 MPH (14 KT):0
Visibility: greater than 7 mile(s):0
Sky conditions: mostly cloudy
Temperature: 57 F (14 C)
Dew Point: 44 F (7 C)
Relative Humidity: 62%
Pressure (altimeter): 30.12 in. Hg (1020 hPa)
ob: EETN 201020Z 25014KT 9999 BKN036 14/07 Q1020 NOSIG
cycle: 10

Station Type Date Time Source
EETN TAF 2020/09/20 06:12 UTC NOAA

TAF TAF EETN 200510Z 2006/2106 25008KT 9999 BKN030
TEMPO 2009/2015 26015G25KT
BECMG 2015/2017 SCT020CB BKN025
BECMG 2023/2101 SCT013 PROB40
TEMPO 2101/2105 3000 BR BKN004

Example: see airport list